Time;durP1;ratioP1;P1;durP2;ratioP2;P2;SDS_P1;SDS_P2;PMS_P1;PMS_P2;Temp;Humidity;BMP_temperature;BMP_pressure;BME280_temperature;BME280_humidity;BME280_pressure;Samples;Min_cycle;Max_cycle;Signal;HPM_P1;HPM_P2
2021/12/04 00:01:57;;;;;;;22.15;12.27;;;5.00;99.90;;;;;;5076351;28;20129;-72
2021/12/04 00:04:28;;;;;;;19.88;12.82;;;5.00;99.90;;;;;;5076138;28;20036;-72
2021/12/04 00:06:53;;;;;;;21.15;12.70;;;5.00;99.90;;;;;;5074752;28;20047;-72
2021/12/04 00:09:21;;;;;;;21.27;12.23;;;5.00;99.90;;;;;;5073851;28;20029;-71
2021/12/04 00:12:01;;;;;;;21.13;14.35;;;5.00;99.90;;;;;;5071380;28;20076;-71
2021/12/04 00:14:27;;;;;;;21.38;11.75;;;5.00;99.90;;;;;;5072363;28;20044;-72
2021/12/04 00:16:53;;;;;;;20.70;12.60;;;5.10;99.90;;;;;;5074249;28;20041;-72
2021/12/04 00:19:19;;;;;;;20.55;12.75;;;5.00;99.90;;;;;;5074897;28;20546;-72
2021/12/04 00:21:45;;;;;;;20.23;12.15;;;5.00;99.90;;;;;;5073824;28;20044;-71
2021/12/04 00:24:11;;;;;;;18.58;11.93;;;5.00;99.90;;;;;;5074206;28;20071;-71
2021/12/04 00:26:38;;;;;;;22.15;12.27;;;4.90;99.90;;;;;;5072536;28;20040;-71
2021/12/04 00:29:04;;;;;;;24.08;13.25;;;5.00;99.90;;;;;;5073498;28;20049;-71
2021/12/04 00:31:31;;;;;;;20.25;11.98;;;5.00;99.90;;;;;;5072165;28;20071;-72
2021/12/04 00:33:57;;;;;;;22.70;14.00;;;5.00;99.90;;;;;;5071355;28;20052;-71
2021/12/04 00:36:52;;;;;;;19.88;12.35;;;5.00;99.90;;;;;;5056399;28;20044;-71
2021/12/04 00:50:15;;;;;;;19.88;13.27;;;5.00;99.90;;;;;;5053141;28;20041;-71
2021/12/04 00:52:40;;;;;;;22.55;13.45;;;5.00;99.90;;;;;;5052086;28;20044;-71
2021/12/04 00:55:07;;;;;;;18.90;12.95;;;4.90;99.90;;;;;;5051759;28;20083;-71
2021/12/04 00:57:33;;;;;;;18.65;12.60;;;4.90;99.90;;;;;;5051409;28;20497;-71
2021/12/04 01:00:00;;;;;;;22.02;13.13;;;4.90;99.90;;;;;;5051256;28;20048;-71
2021/12/04 01:02:26;;;;;;;22.52;14.18;;;4.90;99.90;;;;;;5052157;28;20127;-71
2021/12/04 01:04:52;;;;;;;23.10;13.30;;;5.00;99.90;;;;;;5051004;28;20037;-71
2021/12/04 01:07:20;;;;;;;22.85;13.85;;;5.00;99.90;;;;;;5052588;28;20128;-72
2021/12/04 01:09:45;;;;;;;18.58;12.95;;;5.00;99.90;;;;;;5052226;28;20045;-72
2021/12/04 01:12:11;;;;;;;22.98;12.60;;;5.10;99.90;;;;;;5051611;28;20090;-72
2021/12/04 01:14:38;;;;;;;20.77;12.57;;;5.00;99.90;;;;;;5052231;28;20036;-71
2021/12/04 01:17:04;;;;;;;21.25;12.60;;;5.00;99.90;;;;;;5052326;28;20524;-71
2021/12/04 01:19:30;;;;;;;21.02;13.63;;;5.10;99.90;;;;;;5051032;28;20083;-71
2021/12/04 01:21:57;;;;;;;18.27;11.88;;;5.00;99.90;;;;;;5050545;28;20045;-72
2021/12/04 01:24:23;;;;;;;21.65;13.48;;;5.00;99.90;;;;;;5052260;28;20101;-72
2021/12/04 01:26:50;;;;;;;19.98;13.13;;;5.10;99.90;;;;;;5050917;28;20408;-72
2021/12/04 01:29:17;;;;;;;19.63;13.40;;;5.00;99.90;;;;;;5051100;28;20099;-71
2021/12/04 01:31:43;;;;;;;19.63;12.80;;;5.00;99.90;;;;;;5050558;28;20041;-72
2021/12/04 01:34:09;;;;;;;20.90;13.75;;;5.00;99.90;;;;;;5050972;28;20425;-72
2021/12/04 01:36:35;;;;;;;17.13;12.10;;;5.00;99.90;;;;;;5051879;28;20033;-72
2021/12/04 01:39:04;;;;;;;19.73;12.70;;;5.00;99.90;;;;;;5051698;28;20045;-71
2021/12/04 01:41:30;;;;;;;17.73;12.23;;;5.00;99.90;;;;;;5050398;28;20056;-71
2021/12/04 01:43:58;;;;;;;17.67;12.30;;;5.00;99.90;;;;;;5050383;28;20044;-71
2021/12/04 01:46:24;;;;;;;19.88;12.63;;;4.90;99.90;;;;;;5050316;28;20119;-71
2021/12/04 01:48:49;;;;;;;17.23;11.85;;;5.00;99.90;;;;;;5051414;28;20123;-71
2021/12/04 01:51:15;;;;;;;16.13;11.88;;;5.00;99.90;;;;;;5050908;28;20127;-72
2021/12/04 01:53:41;;;;;;;16.90;12.10;;;5.00;99.90;;;;;;5051413;28;20045;-71
2021/12/04 01:56:06;;;;;;;18.80;12.85;;;5.00;99.90;;;;;;5050099;28;20143;-71
2021/12/04 01:58:32;;;;;;;14.88;10.57;;;4.90;99.90;;;;;;5050173;28;20444;-71
2021/12/04 02:00:58;;;;;;;16.05;11.20;;;5.00;99.90;;;;;;5050107;28;20562;-71
2021/12/04 02:03:24;;;;;;;17.33;10.75;;;5.00;99.90;;;;;;5051173;28;20063;-71
2021/12/04 02:05:50;;;;;;;13.60;10.10;;;4.90;99.90;;;;;;5050036;28;20056;-71
2021/12/04 02:08:21;;;;;;;13.13;10.25;;;5.00;99.90;;;;;;5051434;28;20132;-71
2021/12/04 02:10:49;;;;;;;12.00;9.68;;;4.90;99.90;;;;;;5051435;28;20063;-71
2021/12/04 02:13:16;;;;;;;12.27;10.30;;;4.90;99.90;;;;;;5049579;28;20040;-71
2021/12/04 02:15:43;;;;;;;12.93;9.77;;;4.90;99.90;;;;;;5049591;28;20166;-71
2021/12/04 02:18:08;;;;;;;13.20;9.23;;;4.90;99.90;;;;;;5051160;28;20048;-71
2021/12/04 02:20:35;;;;;;;13.00;9.18;;;4.80;99.90;;;;;;5050500;28;20037;-71
2021/12/04 02:23:03;;;;;;;9.85;8.77;;;4.80;99.90;;;;;;5050124;28;20154;-71
2021/12/04 02:25:29;;;;;;;10.43;7.90;;;4.80;99.90;;;;;;5051092;28;20112;-71
2021/12/04 02:27:55;;;;;;;11.07;8.90;;;4.80;99.90;;;;;;5049818;28;20045;-71
2021/12/04 02:30:24;;;;;;;9.30;8.07;;;4.80;99.90;;;;;;5049773;28;20041;-71
2021/12/04 02:32:51;;;;;;;10.07;8.13;;;4.80;99.90;;;;;;5050795;28;20041;-71
2021/12/04 02:35:18;;;;;;;9.88;7.55;;;4.90;99.90;;;;;;5049296;28;20114;-71
2021/12/04 02:37:44;;;;;;;8.82;7.25;;;4.90;99.90;;;;;;5050957;28;20120;-71
2021/12/04 02:40:13;;;;;;;12.07;8.18;;;4.90;99.90;;;;;;5049914;28;20059;-71
2021/12/04 02:42:40;;;;;;;8.35;7.43;;;4.80;99.90;;;;;;5050650;28;20124;-71
2021/12/04 02:45:08;;;;;;;10.90;7.60;;;4.80;99.90;;;;;;5049496;28;20051;-71
2021/12/04 02:47:35;;;;;;;9.70;7.95;;;4.80;99.90;;;;;;5050804;28;20036;-71
2021/12/04 02:50:05;;;;;;;10.30;7.80;;;4.80;99.90;;;;;;5051180;28;20029;-71
2021/12/04 02:52:31;;;;;;;9.38;7.75;;;4.80;99.90;;;;;;5049205;28;20091;-71
2021/12/04 02:54:57;;;;;;;10.93;8.15;;;4.80;99.90;;;;;;5050886;28;20048;-71
2021/12/04 02:57:23;;;;;;;9.70;7.95;;;4.80;99.90;;;;;;5049737;28;20378;-71
2021/12/04 02:59:50;;;;;;;11.07;8.07;;;4.80;99.90;;;;;;5050812;28;20048;-71
2021/12/04 03:02:24;;;;;;;10.35;8.05;;;4.90;99.90;;;;;;5050288;28;20103;-71
2021/12/04 03:04:55;;;;;;;9.20;7.80;;;5.00;99.90;;;;;;5050836;28;20041;-71
2021/12/04 03:07:22;;;;;;;9.57;8.10;;;4.90;99.90;;;;;;5050726;28;20055;-71
2021/12/04 03:09:48;;;;;;;9.30;7.88;;;4.90;99.90;;;;;;5049744;28;20044;-71
2021/12/04 03:12:15;;;;;;;8.73;7.82;;;4.90;99.90;;;;;;5050047;28;20672;-71
2021/12/04 03:14:41;;;;;;;10.05;7.88;;;4.90;99.90;;;;;;5049144;28;20068;-71
2021/12/04 03:17:07;;;;;;;11.98;8.40;;;4.90;99.90;;;;;;5050709;28;20118;-71
2021/12/04 03:19:34;;;;;;;8.98;7.25;;;4.90;99.90;;;;;;5050625;28;20545;-71
2021/12/04 03:21:59;;;;;;;9.48;7.70;;;4.90;99.90;;;;;;5050254;28;20405;-71
2021/12/04 03:24:26;;;;;;;8.63;7.35;;;5.00;99.90;;;;;;5050487;28;20044;-71
2021/12/04 03:26:52;;;;;;;9.23;6.95;;;4.90;99.90;;;;;;5049481;28;20400;-71
2021/12/04 03:29:21;;;;;;;9.73;8.02;;;4.90;99.90;;;;;;5050754;28;20037;-71
2021/12/04 03:42:27;;;;;;;9.18;7.07;;;5.00;99.90;;;;;;5050023;28;20137;-71
2021/12/04 03:44:52;;;;;;;10.40;6.95;;;5.00;99.90;;;;;;5049100;28;20566;-71
2021/12/04 03:47:20;;;;;;;9.30;7.72;;;5.10;99.90;;;;;;5052078;28;20561;-71
2021/12/04 03:49:46;;;;;;;8.77;7.25;;;5.00;99.90;;;;;;5053846;28;20064;-72
2021/12/04 03:52:12;;;;;;;10.32;8.15;;;5.00;99.90;;;;;;5053431;28;20056;-71
2021/12/04 03:54:38;;;;;;;9.38;6.40;;;5.00;99.90;;;;;;5053895;28;20124;-71
2021/12/04 03:57:05;;;;;;;8.60;6.88;;;5.00;99.90;;;;;;5053833;28;20116;-71
2021/12/04 03:59:36;;;;;;;9.02;7.40;;;5.00;99.90;;;;;;5052505;28;20049;-71
2021/12/04 04:02:03;;;;;;;8.70;6.60;;;5.00;99.90;;;;;;5053604;28;20440;-72
2021/12/04 04:04:29;;;;;;;8.80;6.95;;;5.00;99.90;;;;;;5053543;28;20547;-71
2021/12/04 04:06:54;;;;;;;9.77;7.53;;;5.00;99.90;;;;;;5052257;28;20049;-72
2021/12/04 04:09:20;;;;;;;8.60;7.30;;;5.00;99.90;;;;;;5053394;28;20404;-72
2021/12/04 04:11:47;;;;;;;9.25;7.63;;;5.00;99.90;;;;;;5051664;28;20095;-72
2021/12/04 04:14:14;;;;;;;9.35;6.93;;;4.90;99.90;;;;;;5053081;28;20075;-71
2021/12/04 04:16:40;;;;;;;6.85;5.90;;;5.00;99.90;;;;;;5053323;28;20068;-71
2021/12/04 04:19:07;;;;;;;7.75;6.78;;;5.00;99.90;;;;;;5053466;28;20044;-71
2021/12/04 04:21:41;;;;;;;8.43;6.55;;;4.90;99.90;;;;;;5053038;28;20090;-71
2021/12/04 04:24:13;;;;;;;8.75;7.30;;;5.00;99.90;;;;;;5053209;28;20033;-71
2021/12/04 04:26:40;;;;;;;8.23;6.82;;;5.00;99.90;;;;;;5054188;28;20108;-72
2021/12/04 04:29:07;;;;;;;8.43;7.05;;;5.00;99.90;;;;;;5054005;28;20205;-71
2021/12/04 04:31:34;;;;;;;8.18;6.78;;;5.00;99.90;;;;;;5051608;28;20048;-71
2021/12/04 04:34:03;;;;;;;10.18;7.35;;;5.00;99.90;;;;;;5051754;28;20657;-71
2021/12/04 05:01:17;;;;;;;13.55;7.93;;;5.00;99.90;;;;;;5052548;28;20045;-71
2021/12/04 05:14:30;;;;;;;11.07;7.32;;;5.00;99.90;;;;;;5050703;28;20056;-71
2021/12/04 05:17:04;;;;;;;10.65;7.28;;;5.00;99.90;;;;;;5052087;28;20103;-71
2021/12/04 05:22:10;;;;;;;11.40;7.10;;;5.00;99.90;;;;;;5051839;28;20076;-71
2021/12/04 05:24:36;;;;;;;8.05;6.95;;;5.00;99.90;;;;;;5051799;28;20044;-71
2021/12/04 05:27:02;;;;;;;9.20;7.25;;;5.00;99.90;;;;;;5050662;28;20448;-71
2021/12/04 05:29:28;;;;;;;9.65;7.88;;;5.00;99.90;;;;;;5050590;28;20037;-71
2021/12/04 05:31:54;;;;;;;9.60;7.80;;;5.00;99.90;;;;;;5050442;28;20049;-71
2021/12/04 05:34:19;;;;;;;9.70;7.35;;;5.00;99.90;;;;;;5051695;28;20037;-71
2021/12/04 05:36:45;;;;;;;9.00;7.38;;;5.00;99.90;;;;;;5050718;28;20048;-72
2021/12/04 05:39:11;;;;;;;9.30;7.43;;;5.00;99.90;;;;;;5051878;28;20488;-72
2021/12/04 05:41:37;;;;;;;9.02;7.25;;;5.00;99.90;;;;;;5051627;28;20159;-72
2021/12/04 05:44:08;;;;;;;11.13;7.80;;;5.00;99.90;;;;;;5051691;28;20037;-72
2021/12/04 05:47:20;;;;;;;10.15;7.10;;;5.00;99.90;;;;;;5052069;28;20037;-72
2021/12/04 05:49:36;;;;;;;8.88;7.43;;;5.00;99.90;;;;;;5048424;28;20417;-72
2021/12/04 05:53:15;;;;;;;10.33;8.20;;;5.00;99.90;;;;;;5033206;28;20098;-73
2021/12/04 05:55:15;;;;;;;9.77;8.15;;;5.00;99.90;;;;;;5041212;28;20291;-72
2021/12/04 05:57:41;;;;;;;9.98;7.85;;;5.00;99.90;;;;;;5050392;28;20084;-72
2021/12/04 06:00:25;;;;;;;13.07;8.43;;;5.00;99.90;;;;;;5050282;28;20079;-71
2021/12/04 06:02:51;;;;;;;10.43;7.88;;;4.90;99.90;;;;;;5051425;28;20128;-72
2021/12/04 06:05:17;;;;;;;11.52;8.48;;;4.90;99.90;;;;;;5051403;28;20068;-72
2021/12/04 06:07:43;;;;;;;10.05;7.60;;;4.90;99.90;;;;;;5050613;28;20102;-72
2021/12/04 06:10:10;;;;;;;12.68;8.63;;;4.90;99.90;;;;;;5049527;28;20037;-72
2021/12/04 06:12:36;;;;;;;12.55;8.55;;;4.90;99.90;;;;;;5050865;28;20049;-72
2021/12/04 06:15:03;;;;;;;9.90;8.00;;;5.00;99.90;;;;;;5051199;28;20048;-71
2021/12/04 06:17:29;;;;;;;11.13;8.23;;;5.00;99.90;;;;;;5051192;28;20118;-72
2021/12/04 06:22:43;;;;;;;11.30;7.82;;;5.00;99.90;;;;;;5051187;28;20075;-71
2021/12/04 06:25:13;;;;;;;10.15;7.80;;;4.90;99.90;;;;;;5051332;28;20037;-72
2021/12/04 06:27:39;;;;;;;12.63;8.15;;;4.90;99.90;;;;;;5049900;28;20033;-71
2021/12/04 06:30:08;;;;;;;12.93;8.65;;;4.90;99.90;;;;;;5049773;28;20490;-71
2021/12/04 06:32:36;;;;;;;12.50;8.15;;;4.90;99.90;;;;;;5051181;28;20048;-72
2021/12/04 06:35:03;;;;;;;12.82;8.38;;;4.90;99.90;;;;;;5050993;28;20040;-72
2021/12/04 06:37:29;;;;;;;9.68;7.50;;;4.90;99.90;;;;;;5051377;28;20044;-72
2021/12/04 06:39:55;;;;;;;10.90;7.75;;;4.90;99.90;;;;;;5049868;28;20386;-72
2021/12/04 06:42:20;;;;;;;10.88;8.18;;;4.90;99.90;;;;;;5049497;28;20132;-72
2021/12/04 06:44:46;;;;;;;11.40;7.82;;;4.90;99.90;;;;;;5051032;28;20091;-72
2021/12/04 06:47:12;;;;;;;10.80;8.70;;;4.90;99.90;;;;;;5050999;28;20511;-71
2021/12/04 06:49:41;;;;;;;13.98;10.05;;;4.80;99.90;;;;;;5050956;28;20037;-72
2021/12/04 06:52:11;;;;;;;11.07;8.27;;;4.90;99.90;;;;;;5049220;28;20116;-71
2021/12/04 06:54:40;;;;;;;13.13;8.68;;;4.90;99.90;;;;;;5050938;28;20041;-71
2021/12/04 06:57:09;;;;;;;11.48;8.32;;;4.90;99.90;;;;;;5049554;28;20124;-72
2021/12/04 06:59:38;;;;;;;13.35;8.90;;;4.90;99.90;;;;;;5050844;28;20056;-71
2021/12/04 07:02:04;;;;;;;15.10;9.73;;;4.90;99.90;;;;;;5050837;28;20489;-72
2021/12/04 07:04:34;;;;;;;13.77;9.73;;;4.90;99.90;;;;;;5049602;28;20052;-71
2021/12/04 07:07:01;;;;;;;13.80;9.73;;;4.90;99.90;;;;;;5049884;28;20045;-72
2021/12/04 07:09:27;;;;;;;12.50;9.23;;;4.90;99.90;;;;;;5032944;28;20170;-72
2021/12/04 07:11:53;;;;;;;13.57;9.25;;;4.90;99.90;;;;;;5048711;28;20552;-72
2021/12/04 07:14:18;;;;;;;13.95;9.85;;;4.90;99.90;;;;;;5049068;28;20413;-72
2021/12/04 07:16:45;;;;;;;15.20;10.05;;;4.90;99.90;;;;;;5049372;28;20064;-72
2021/12/04 07:19:10;;;;;;;16.15;11.02;;;4.90;99.90;;;;;;5049778;28;20060;-71
2021/12/04 07:21:36;;;;;;;17.48;10.20;;;4.90;99.90;;;;;;5053008;28;20045;-72
2021/12/04 07:24:02;;;;;;;17.45;11.13;;;4.90;99.90;;;;;;5053072;28;20040;-71
2021/12/04 07:26:28;;;;;;;16.45;10.38;;;4.90;99.90;;;;;;5053407;28;20118;-72
2021/12/04 07:28:54;;;;;;;16.98;10.43;;;4.90;99.90;;;;;;5054364;28;20107;-72
2021/12/04 07:31:20;;;;;;;19.38;11.65;;;4.90;99.90;;;;;;5052923;28;20132;-72
2021/12/04 07:33:46;;;;;;;18.58;10.85;;;4.90;99.90;;;;;;5053083;28;20509;-72
2021/12/04 07:36:11;;;;;;;19.02;11.20;;;4.90;99.90;;;;;;5054101;28;20469;-72
2021/12/04 07:38:37;;;;;;;20.67;11.50;;;4.90;99.90;;;;;;5050896;28;20043;-71
2021/12/04 07:41:03;;;;;;;21.80;11.48;;;4.90;99.90;;;;;;5050780;28;20094;-72
2021/12/04 07:43:29;;;;;;;21.52;11.85;;;4.90;99.90;;;;;;5050019;28;20115;-72
2021/12/04 07:45:56;;;;;;;19.92;11.48;;;4.90;99.90;;;;;;5052198;28;20569;-73
2021/12/04 07:48:21;;;;;;;20.35;11.55;;;4.90;99.90;;;;;;5052012;28;20547;-73
2021/12/04 07:50:47;;;;;;;21.10;12.02;;;4.90;99.90;;;;;;5034974;28;20034;-73
2021/12/04 07:53:13;;;;;;;20.60;12.48;;;5.00;99.90;;;;;;5051571;28;20033;-74
2021/12/04 07:55:39;;;;;;;18.77;11.38;;;4.90;99.90;;;;;;5052424;28;20033;-73
2021/12/04 07:58:05;;;;;;;21.05;12.10;;;4.90;99.90;;;;;;5052386;28;20139;-73
2021/12/04 08:00:31;;;;;;;18.27;11.35;;;4.90;99.90;;;;;;5035422;28;20512;-72
2021/12/04 08:02:57;;;;;;;18.13;11.43;;;4.90;99.90;;;;;;5051974;28;20083;-72
2021/12/04 08:05:23;;;;;;;20.25;11.38;;;4.90;99.90;;;;;;5053627;28;20076;-72
2021/12/04 08:07:50;;;;;;;22.15;11.73;;;4.90;99.90;;;;;;5052410;28;20048;-72
2021/12/04 08:10:17;;;;;;;28.13;11.38;;;4.90;99.90;;;;;;5052182;28;20036;-72
2021/12/04 08:12:43;;;;;;;19.85;11.10;;;4.90;99.90;;;;;;5053065;28;20045;-71
2021/12/04 08:15:10;;;;;;;21.85;12.05;;;5.00;99.90;;;;;;5052028;28;20036;-72
2021/12/04 08:17:37;;;;;;;23.40;11.80;;;5.00;99.90;;;;;;5053570;28;20045;-72
2021/12/04 08:20:05;;;;;;;21.08;11.77;;;5.00;99.90;;;;;;5051953;28;20076;-72
2021/12/04 08:22:31;;;;;;;17.52;10.82;;;5.00;99.90;;;;;;5051606;28;20063;-72
2021/12/04 08:24:56;;;;;;;20.23;11.07;;;5.00;99.90;;;;;;5051732;28;20033;-71
2021/12/04 08:27:22;;;;;;;19.25;11.57;;;4.90;99.90;;;;;;5052272;28;20033;-72
2021/12/04 08:29:47;;;;;;;17.20;11.10;;;4.90;99.90;;;;;;5052130;28;20041;-72
2021/12/04 08:32:13;;;;;;;17.77;10.40;;;4.90;99.90;;;;;;5050760;28;20057;-73
2021/12/04 08:34:39;;;;;;;24.13;11.05;;;4.90;99.90;;;;;;5051919;28;20048;-73
2021/12/04 08:37:05;;;;;;;21.48;11.45;;;5.00;99.90;;;;;;5054193;28;20049;-73
2021/12/04 08:39:31;;;;;;;21.00;11.48;;;5.00;99.90;;;;;;5052147;28;20493;-73
2021/12/04 08:41:58;;;;;;;21.45;11.68;;;5.00;99.90;;;;;;5051470;28;20048;-73
2021/12/04 08:44:25;;;;;;;21.25;10.73;;;5.00;99.90;;;;;;5051443;28;20469;-72
2021/12/04 08:46:51;;;;;;;18.55;10.98;;;5.00;99.90;;;;;;5051549;28;20396;-75
2021/12/04 08:49:16;;;;;;;17.13;10.27;;;5.00;99.90;;;;;;5051403;28;20128;-76
2021/12/04 08:51:42;;;;;;;18.35;10.80;;;5.00;99.90;;;;;;5051087;28;20131;-74
2021/12/04 08:54:09;;;;;;;17.23;10.32;;;5.00;99.90;;;;;;5051119;28;20040;-75
2021/12/04 08:56:35;;;;;;;18.30;10.20;;;5.00;99.90;;;;;;5052710;28;20041;-76
2021/12/04 08:59:02;;;;;;;20.83;10.32;;;5.00;99.90;;;;;;5051414;28;20037;-75
2021/12/04 09:01:33;;;;;;;23.00;11.57;;;5.10;99.90;;;;;;5053932;28;20401;-75
2021/12/04 09:04:06;;;;;;;18.23;10.65;;;5.00;99.90;;;;;;5052244;28;20068;-75
2021/12/04 09:06:34;;;;;;;21.50;11.07;;;5.10;99.90;;;;;;5051271;28;20037;-75
2021/12/04 09:09:00;;;;;;;22.77;12.18;;;5.10;99.90;;;;;;5051241;28;20132;-75
2021/12/04 09:11:31;;;;;;;19.52;11.40;;;5.10;99.90;;;;;;5034612;28;20350;-72
2021/12/04 09:13:57;;;;;;;22.10;11.25;;;5.10;99.90;;;;;;5050638;28;20521;-71
2021/12/04 09:16:24;;;;;;;21.75;11.30;;;5.10;99.90;;;;;;5052316;28;20047;-71
2021/12/04 09:18:51;;;;;;;24.90;11.40;;;5.20;99.90;;;;;;5052290;28;20535;-71
2021/12/04 09:21:17;;;;;;;18.52;10.38;;;5.10;99.90;;;;;;5034380;28;20049;-71
2021/12/04 09:23:49;;;;;;;23.27;11.75;;;5.10;99.90;;;;;;5052100;28;20045;-71
2021/12/04 09:29:23;;;;;;;24.27;11.20;;;5.10;99.90;;;;;;5050468;28;20073;-71
2021/12/04 10:12:23;;;;;;;27.73;13.18;;;5.20;99.90;;;;;;5052125;28;20048;-71
2021/12/04 10:33:53;;;;;;;30.48;13.75;;;5.30;99.90;;;;;;5051878;28;20048;-70
2021/12/04 10:36:35;;;;;;;29.45;13.40;;;5.30;99.90;;;;;;5049349;28;20044;-70
2021/12/04 10:39:02;;;;;;;34.60;15.55;;;5.40;99.90;;;;;;5050916;28;20138;-70
2021/12/04 10:41:30;;;;;;;30.67;13.57;;;5.40;99.90;;;;;;5050415;28;20048;-70
2021/12/04 10:44:06;;;;;;;31.88;13.98;;;5.30;99.90;;;;;;5050099;28;20485;-70
2021/12/04 10:46:32;;;;;;;32.08;13.93;;;5.40;99.90;;;;;;5049350;28;20033;-73
2021/12/04 10:49:06;;;;;;;32.78;14.05;;;5.30;99.90;;;;;;5049096;28;20037;-75
2021/12/04 10:51:48;;;;;;;31.85;15.23;;;5.40;99.90;;;;;;5049119;28;20045;-73
2021/12/04 10:54:28;;;;;;;35.75;15.85;;;5.40;99.90;;;;;;5049069;28;20045;-72
2021/12/04 10:57:06;;;;;;;34.92;15.45;;;5.40;99.90;;;;;;5052200;28;20417;-73
2021/12/04 10:59:59;;;;;;;35.80;16.88;;;5.40;99.90;;;;;;5053160;28;20049;-72
2021/12/04 11:02:35;;;;;;;38.88;15.80;;;5.40;99.90;;;;;;5054056;28;20098;-73
2021/12/04 11:05:25;;;;;;;43.58;18.73;;;5.40;99.90;;;;;;5053217;28;20091;-72
2021/12/04 11:22:47;;;;;;;51.88;20.92;;;5.40;99.90;;;;;;5053450;28;20049;-73
2021/12/04 11:36:33;;;;;;;56.47;21.48;;;5.50;99.90;;;;;;5055777;28;20433;-73
2021/12/04 11:42:24;;;;;;;54.40;22.30;;;5.50;99.90;;;;;;5011315;28;20089;-70
2021/12/04 11:44:57;;;;;;;68.00;23.15;;;5.50;99.90;;;;;;5049960;28;20061;-69
2021/12/04 11:47:23;;;;;;;62.13;22.67;;;5.50;99.90;;;;;;5052402;28;20064;-69
2021/12/04 11:49:49;;;;;;;69.28;25.33;;;5.50;99.90;;;;;;5052963;28;20610;-74
2021/12/04 11:52:20;;;;;;;67.03;26.25;;;5.50;99.90;;;;;;5053649;28;20083;-70
2021/12/04 11:55:00;;;;;;;70.47;25.08;;;5.50;99.90;;;;;;5052306;28;20040;-70
2021/12/04 11:57:36;;;;;;;67.47;27.08;;;5.50;99.90;;;;;;5052617;28;20071;-69
2021/12/04 12:00:16;;;;;;;75.70;27.85;;;5.50;99.90;;;;;;5054011;28;20041;-70
2021/12/04 12:02:42;;;;;;;75.63;27.13;;;5.50;99.90;;;;;;5053071;28;20041;-69
2021/12/04 12:05:16;;;;;;;84.28;28.30;;;5.70;99.90;;;;;;5052425;28;20036;-70
2021/12/04 12:07:58;;;;;;;71.80;27.08;;;5.60;99.90;;;;;;5050998;28;20045;-70
2021/12/04 12:10:27;;;;;;;72.93;27.33;;;5.50;99.90;;;;;;5051981;28;20048;-70
2021/12/04 12:12:56;;;;;;;68.78;26.67;;;5.50;99.90;;;;;;5053011;28;20045;-70
2021/12/04 12:15:31;;;;;;;73.55;26.45;;;5.50;99.90;;;;;;5053080;28;20089;-70
2021/12/04 12:18:18;;;;;;;77.13;27.73;;;5.50;99.90;;;;;;5053211;28;20366;-69
2021/12/04 12:20:50;;;;;;;77.88;26.40;;;5.60;99.90;;;;;;5051792;28;20037;-69
2021/12/04 12:23:20;;;;;;;66.30;26.23;;;5.60;99.90;;;;;;5053050;28;20117;-69
2021/12/04 12:34:02;;;;;;;56.58;21.05;;;5.70;99.90;;;;;;5052936;28;20049;-69
2021/12/04 12:36:32;;;;;;;51.92;21.40;;;5.70;99.90;;;;;;5053013;28;20116;-71
2021/12/04 12:39:15;;;;;;;51.95;22.20;;;5.70;99.90;;;;;;5052803;28;20064;-69
2021/12/04 12:41:42;;;;;;;55.70;22.83;;;5.70;99.90;;;;;;5051319;28;20041;-70
2021/12/04 12:44:09;;;;;;;65.22;25.17;;;5.80;99.90;;;;;;5055402;28;20076;-74
2021/12/04 12:46:36;;;;;;;64.93;25.00;;;5.60;99.90;;;;;;5051382;28;20086;-70
2021/12/04 12:49:05;;;;;;;66.90;26.13;;;5.60;99.90;;;;;;5051384;28;20048;-70
2021/12/04 12:51:35;;;;;;;63.33;26.58;;;5.70;99.90;;;;;;5054093;28;20041;-70
2021/12/04 12:54:05;;;;;;;63.78;26.10;;;5.70;99.90;;;;;;5068892;28;20036;-70
2021/12/04 12:56:33;;;;;;;72.78;25.63;;;5.70;99.90;;;;;;5068374;28;20072;-70
2021/12/04 12:59:09;;;;;;;65.68;26.88;;;5.70;99.90;;;;;;5058657;28;20033;-70
2021/12/04 13:13:24;;;;;;;61.13;25.50;;;5.80;99.90;;;;;;5051091;28;20049;-78
2021/12/04 13:15:52;;;;;;;57.92;23.20;;;5.80;99.90;;;;;;5051339;28;20049;-77
2021/12/04 13:18:23;;;;;;;64.93;25.38;;;5.70;99.90;;;;;;5055745;28;20111;-77
2021/12/04 13:20:51;;;;;;;61.63;25.60;;;5.70;99.90;;;;;;5062579;28;20450;-77
2021/12/04 13:23:22;;;;;;;59.13;25.17;;;5.70;99.90;;;;;;5060217;28;20044;-77
2021/12/04 13:25:53;;;;;;;56.50;23.58;;;5.80;99.90;;;;;;5061184;28;20086;-77
2021/12/04 13:28:21;;;;;;;64.77;25.50;;;5.70;99.90;;;;;;5063411;28;20553;-78
2021/12/04 13:30:48;;;;;;;62.05;25.48;;;5.80;99.90;;;;;;5070901;28;20305;-78
2021/12/04 13:33:14;;;;;;;68.97;28.48;;;5.80;99.90;;;;;;5068828;28;20059;-78
2021/12/04 13:35:45;;;;;;;70.00;28.70;;;5.80;99.90;;;;;;5060527;28;20044;-78
2021/12/04 13:38:11;;;;;;;66.07;24.33;;;5.80;99.90;;;;;;5062781;28;20036;-78
2021/12/04 13:40:37;;;;;;;56.80;23.58;;;5.80;99.90;;;;;;5065395;28;20129;-77
2021/12/04 13:43:08;;;;;;;68.03;28.13;;;5.80;99.90;;;;;;5069892;28;20043;-78
2021/12/04 13:45:34;;;;;;;72.25;29.15;;;5.80;99.90;;;;;;5071658;28;20040;-77
2021/12/04 13:48:00;;;;;;;79.68;30.85;;;5.70;99.90;;;;;;5070727;28;20510;-77
2021/12/04 13:53:03;;;;;;;69.43;28.17;;;5.80;99.90;;;;;;5050227;28;20049;-78
2021/12/04 13:55:30;;;;;;;66.60;29.52;;;5.80;99.90;;;;;;5050662;28;20041;-78
2021/12/04 13:57:57;;;;;;;63.75;27.58;;;5.80;99.90;;;;;;5051838;28;20045;-78
2021/12/04 14:00:24;;;;;;;64.78;26.35;;;5.80;99.90;;;;;;5055960;28;20393;-78
2021/12/04 14:02:50;;;;;;;57.28;23.83;;;5.80;99.90;;;;;;5049802;28;20063;-78
2021/12/04 14:05:18;;;;;;;52.60;22.42;;;5.80;99.90;;;;;;5051696;28;20048;-78
2021/12/04 14:07:56;;;;;;;53.35;23.10;;;5.80;99.90;;;;;;5050581;28;20365;-78
2021/12/04 14:10:26;;;;;;;48.63;21.27;;;5.80;99.90;;;;;;5062155;28;20028;-77
2021/12/04 14:12:54;;;;;;;57.03;22.75;;;5.80;99.90;;;;;;5050317;28;20041;-77
2021/12/04 14:15:22;;;;;;;60.58;22.50;;;5.90;99.90;;;;;;5061109;28;20040;-77
2021/12/04 14:17:58;;;;;;;50.70;22.05;;;5.90;99.90;;;;;;5056538;28;20197;-75
2021/12/04 14:20:24;;;;;;;51.65;21.48;;;5.80;99.90;;;;;;5049833;28;20041;-72
2021/12/04 14:22:53;;;;;;;55.60;22.17;;;5.90;99.90;;;;;;5046590;28;20180;-71
2021/12/04 14:25:19;;;;;;;52.50;22.77;;;5.80;99.90;;;;;;5047919;28;20515;-74
2021/12/04 14:27:46;;;;;;;65.93;26.30;;;6.30;99.90;;;;;;5046923;28;20094;-73
2021/12/04 14:30:16;;;;;;;69.72;28.05;;;6.30;99.90;;;;;;5047526;28;20570;-73
2021/12/04 14:32:45;;;;;;;65.10;29.45;;;6.10;99.90;;;;;;5046565;28;20496;-68
2021/12/04 14:35:15;;;;;;;62.38;26.02;;;6.00;99.90;;;;;;5048184;28;20050;-69
2021/12/04 14:37:43;;;;;;;51.22;23.52;;;5.90;99.90;;;;;;5046495;28;20049;-69
2021/12/04 14:40:16;;;;;;;54.25;22.25;;;5.90;99.90;;;;;;5047888;28;20436;-72
2021/12/04 14:42:42;;;;;;;48.55;22.35;;;5.90;99.90;;;;;;5046515;28;20037;-72
2021/12/04 14:45:14;;;;;;;51.15;21.42;;;5.80;99.90;;;;;;5047794;28;20090;-72
2021/12/04 14:47:45;;;;;;;54.10;21.70;;;5.80;99.90;;;;;;5048363;28;20037;-73
2021/12/04 14:50:15;;;;;;;48.60;23.50;;;5.80;99.90;;;;;;5047831;28;20667;-73
2021/12/04 14:52:41;;;;;;;56.90;24.00;;;5.80;99.90;;;;;;5048995;28;20064;-73
2021/12/04 14:55:22;;;;;;;51.60;24.70;;;5.80;99.90;;;;;;5050741;28;20525;-73
2021/12/04 14:57:49;;;;;;;57.88;23.73;;;5.80;99.90;;;;;;5049833;28;20125;-72
2021/12/04 15:00:22;;;;;;;54.00;24.02;;;5.80;99.90;;;;;;5050938;28;20041;-72
2021/12/04 15:03:11;;;;;;;55.20;23.20;;;5.70;99.90;;;;;;5049077;28;20036;-73
2021/12/04 15:05:38;;;;;;;56.08;23.63;;;5.80;99.90;;;;;;5049692;28;20461;-72
2021/12/04 15:08:04;;;;;;;50.55;23.73;;;5.80;99.90;;;;;;5050649;28;20446;-72
2021/12/04 15:10:30;;;;;;;56.13;23.65;;;5.80;99.90;;;;;;5050701;28;20045;-73
2021/12/04 15:12:58;;;;;;;53.35;22.83;;;5.80;99.90;;;;;;5049005;28;20057;-70
2021/12/04 15:15:28;;;;;;;52.20;23.75;;;5.80;99.90;;;;;;5050530;28;20045;-69
2021/12/04 15:18:02;;;;;;;55.28;26.17;;;5.70;99.90;;;;;;5049861;28;20063;-69
2021/12/04 15:20:32;;;;;;;56.70;24.73;;;5.70;99.90;;;;;;5050847;28;20037;-70
2021/12/04 15:23:05;;;;;;;56.10;24.70;;;5.70;99.90;;;;;;5050173;28;20506;-69
2021/12/04 15:25:33;;;;;;;60.47;24.50;;;5.70;99.90;;;;;;5049220;28;20037;-70
2021/12/04 15:28:00;;;;;;;57.15;25.85;;;5.70;99.90;;;;;;5049259;28;20090;-70
2021/12/04 15:30:26;;;;;;;48.45;22.23;;;5.70;99.90;;;;;;5050607;28;20667;-70
2021/12/04 15:32:52;;;;;;;58.45;25.40;;;5.60;99.90;;;;;;5050309;28;20047;-70
2021/12/04 15:35:30;;;;;;;53.05;23.92;;;5.70;99.90;;;;;;5049414;28;20393;-70
2021/12/04 15:38:07;;;;;;;55.13;24.63;;;5.70;99.90;;;;;;5050716;28;20033;-70
2021/12/04 15:43:32;;;;;;;52.17;25.00;;;5.60;99.90;;;;;;5052314;28;20084;-70
2021/12/04 15:46:32;;;;;;;52.53;24.05;;;5.70;99.90;;;;;;5036290;28;20048;-69
2021/12/04 15:54:23;;;;;;;50.08;22.77;;;5.70;99.90;;;;;;5054316;28;20049;-71